Time;durP1;ratioP1;P1;durP2;ratioP2;P2;SDS_P1;SDS_P2;PMS_P1;PMS_P2;Temp;Humidity;BMP_temperature;BMP_pressure;BME280_temperature;BME280_humidity;BME280_pressure;Samples;Min_cycle;Max_cycle;Signal;HPM_P1;HPM_P2
2022/06/26 00:00:07;;;;;;;8.20;6.43;;;18.50;99.90;18.50;100323.00;;;;4880661;28;88481;-62
2022/06/26 00:02:33;;;;;;;8.80;6.50;;;18.40;99.90;18.50;100336.00;;;;4883040;28;87764;-62
2022/06/26 00:04:58;;;;;;;7.65;6.47;;;18.30;99.90;18.40;100338.00;;;;4882584;28;109186;-61
2022/06/26 00:07:25;;;;;;;7.40;6.38;;;18.30;99.90;18.40;100341.00;;;;4879666;28;111284;-61
2022/06/26 00:09:50;;;;;;;7.32;6.28;;;18.30;99.90;18.40;100341.00;;;;4877017;28;118279;-61
2022/06/26 00:12:16;;;;;;;6.53;5.88;;;18.20;99.90;18.30;100343.00;;;;4881099;28;110482;-62
2022/06/26 00:14:42;;;;;;;5.80;5.20;;;18.20;99.90;18.30;100342.00;;;;4898121;28;88000;-61
2022/06/26 00:17:08;;;;;;;7.15;4.82;;;18.20;99.90;18.30;100333.00;;;;4896594;28;118695;-62
2022/06/26 00:19:34;;;;;;;7.13;5.80;;;18.20;99.90;18.20;100333.00;;;;4888171;28;88268;-62
2022/06/26 00:21:59;;;;;;;7.30;6.20;;;18.10;99.90;18.30;100336.00;;;;4880116;28;87807;-62
2022/06/26 00:24:25;;;;;;;8.00;6.25;;;18.10;99.90;18.20;100344.00;;;;4880381;28;87043;-62
2022/06/26 00:26:51;;;;;;;7.18;5.80;;;18.10;99.90;18.20;100333.00;;;;4879016;28;87870;-61
2022/06/26 00:29:16;;;;;;;7.43;6.22;;;18.10;99.90;18.20;100345.00;;;;4878643;28;118291;-62
2022/06/26 00:31:42;;;;;;;5.88;5.18;;;18.20;99.90;18.20;100340.00;;;;4877792;28;108937;-62
2022/06/26 00:34:08;;;;;;;7.53;5.70;;;18.10;99.90;18.20;100340.00;;;;4892616;28;88067;-62
2022/06/26 00:36:34;;;;;;;7.22;5.55;;;18.10;99.90;18.20;100346.00;;;;4899270;28;92858;-62
2022/06/26 00:38:59;;;;;;;6.43;5.80;;;18.10;99.90;18.20;100343.00;;;;4880437;28;114903;-62
2022/06/26 00:41:25;;;;;;;7.38;5.95;;;18.10;99.90;18.20;100346.00;;;;4882571;28;111007;-62
2022/06/26 00:43:51;;;;;;;5.88;4.32;;;18.00;99.90;18.20;100340.00;;;;4886592;28;87892;-62
2022/06/26 00:46:17;;;;;;;7.45;6.75;;;18.00;99.90;18.10;100335.00;;;;4879804;28;96562;-61
2022/06/26 00:48:43;;;;;;;6.97;5.53;;;18.00;99.90;18.10;100338.00;;;;4879743;28;88194;-62
2022/06/26 00:51:09;;;;;;;7.47;6.22;;;18.00;99.90;18.10;100338.00;;;;4878142;28;111578;-62
2022/06/26 00:53:35;;;;;;;7.78;6.05;;;18.00;99.90;18.10;100342.00;;;;4869216;28;87789;-61
2022/06/26 00:56:00;;;;;;;5.78;5.05;;;17.90;99.90;18.00;100342.00;;;;4898267;28;89489;-62
2022/06/26 00:58:28;;;;;;;8.05;5.82;;;17.90;99.90;18.00;100337.00;;;;4886878;28;92917;-62
2022/06/26 01:00:55;;;;;;;8.38;6.05;;;17.90;99.90;18.00;100347.00;;;;4879113;28;87798;-62
2022/06/26 01:03:20;;;;;;;6.95;6.35;;;17.90;99.90;18.00;100348.00;;;;4884770;28;87771;-63
2022/06/26 01:05:46;;;;;;;5.88;5.15;;;17.90;99.90;18.00;100359.00;;;;4878081;28;117362;-62
2022/06/26 01:08:12;;;;;;;11.65;6.38;;;17.80;99.90;17.90;100354.00;;;;4879143;28;116324;-62
2022/06/26 01:10:38;;;;;;;7.47;6.47;;;17.80;99.90;17.90;100360.00;;;;4877730;28;109127;-63
2022/06/26 01:13:04;;;;;;;6.35;5.75;;;17.80;99.90;17.90;100359.00;;;;4883839;28;87271;-61
2022/06/26 01:15:30;;;;;;;6.45;5.63;;;17.80;99.90;17.80;100359.00;;;;4879549;28;118361;-63
2022/06/26 01:18:03;;;;;;;6.28;4.88;;;17.80;99.90;17.80;100361.00;;;;4885933;28;88793;-62
2022/06/26 01:20:33;;;;;;;7.57;4.68;;;17.70;99.90;17.80;100353.00;;;;4878485;28;101922;-63
2022/06/26 01:23:04;;;;;;;6.30;5.68;;;17.70;99.90;17.80;100361.00;;;;4875472;28;89738;-62
2022/06/26 01:25:48;;;;;;;5.82;4.72;;;17.70;99.90;17.70;100364.00;;;;4895913;28;103736;-62
2022/06/26 01:28:14;;;;;;;8.18;5.18;;;17.60;99.90;17.70;100363.00;;;;4886298;28;88630;-62
2022/06/26 01:30:40;;;;;;;5.78;5.28;;;17.60;99.90;17.70;100366.00;;;;4878957;28;88367;-62
2022/06/26 01:33:06;;;;;;;6.03;5.35;;;17.60;99.90;17.60;100365.00;;;;4877805;28;88056;-62
2022/06/26 01:35:32;;;;;;;6.22;5.63;;;17.50;99.90;17.60;100361.00;;;;4878096;28;88361;-62
2022/06/26 01:38:22;;;;;;;7.63;5.63;;;17.50;99.90;17.50;100367.00;;;;4879697;28;105425;-62
2022/06/26 01:40:51;;;;;;;5.60;5.10;;;17.50;99.90;17.50;100365.00;;;;4879496;28;87854;-61
2022/06/26 01:43:24;;;;;;;5.68;5.15;;;17.40;99.90;17.50;100370.00;;;;4878652;28;87986;-62
2022/06/26 01:45:53;;;;;;;5.78;4.75;;;17.40;99.90;17.50;100374.00;;;;4877095;28;88865;-62
2022/06/26 01:48:20;;;;;;;6.75;5.68;;;17.40;99.90;17.50;100363.00;;;;4888039;28;88281;-63
2022/06/26 01:50:47;;;;;;;5.97;5.38;;;17.40;99.90;17.50;100353.00;;;;4897379;28;87941;-62
2022/06/26 01:53:14;;;;;;;6.15;5.32;;;17.40;99.90;17.50;100364.00;;;;4897644;28;101173;-63
2022/06/26 01:55:40;;;;;;;5.82;4.63;;;17.40;99.90;17.40;100367.00;;;;4896143;28;89683;-62
2022/06/26 01:58:07;;;;;;;6.25;5.28;;;17.30;99.90;17.40;100362.00;;;;4886748;28;109882;-63
2022/06/26 02:00:39;;;;;;;7.65;5.82;;;17.30;99.90;17.40;100361.00;;;;4880685;28;87645;-62
2022/06/26 02:03:05;;;;;;;5.05;4.63;;;17.30;99.90;17.30;100357.00;;;;4899314;28;87011;-63
2022/06/26 02:05:31;;;;;;;7.28;6.57;;;17.30;99.90;17.30;100353.00;;;;4879642;28;95927;-63
2022/06/26 02:08:00;;;;;;;9.75;5.68;;;17.20;99.90;17.30;100355.00;;;;4890642;28;115401;-62
2022/06/26 02:15:58;;;;;;;7.35;5.50;;;17.20;99.90;17.30;100351.00;;;;4877675;28;88037;-62
2022/06/26 02:18:24;;;;;;;7.78;6.07;;;17.20;99.90;17.30;100359.00;;;;4887632;28;88668;-62
2022/06/26 02:20:50;;;;;;;7.25;5.95;;;17.20;99.90;17.30;100345.00;;;;4879036;28;98584;-62
2022/06/26 02:23:16;;;;;;;8.77;7.47;;;17.20;99.90;17.30;100346.00;;;;4881478;28;105994;-62
2022/06/26 02:33:35;;;;;;;5.93;4.93;;;17.10;99.90;17.20;100366.00;;;;4895811;28;87911;-62
2022/06/26 02:36:03;;;;;;;5.75;4.90;;;17.10;99.90;17.10;100361.00;;;;4880867;28;88501;-63
2022/06/26 02:38:29;;;;;;;7.20;6.40;;;17.10;99.90;17.10;100364.00;;;;4879246;28;89454;-63
2022/06/26 02:40:55;;;;;;;7.88;6.20;;;17.00;99.90;17.10;100367.00;;;;4882216;28;93192;-63
2022/06/26 02:43:24;;;;;;;7.93;5.88;;;17.00;99.90;17.10;100372.00;;;;4880221;28;107627;-62
2022/06/26 02:45:51;;;;;;;7.10;6.22;;;17.00;99.90;17.10;100378.00;;;;4886037;28;87827;-63
2022/06/26 02:48:17;;;;;;;8.43;6.15;;;17.00;99.90;17.10;100375.00;;;;4886067;28;88473;-63
2022/06/26 02:50:43;;;;;;;6.40;5.38;;;17.00;99.90;17.10;100376.00;;;;4882063;28;94888;-63
2022/06/26 02:53:09;;;;;;;6.80;6.10;;;17.00;99.90;17.10;100382.00;;;;4880792;28;109625;-62
2022/06/26 02:55:35;;;;;;;8.32;6.75;;;17.00;99.90;17.00;100380.00;;;;4879751;28;94256;-63
2022/06/26 02:58:03;;;;;;;6.10;5.50;;;16.90;99.90;17.00;100383.00;;;;4880314;28;88530;-62
2022/06/26 03:00:28;;;;;;;7.75;6.28;;;16.90;99.90;17.00;100390.00;;;;4880453;28;88626;-62
2022/06/26 03:03:21;;;;;;;5.80;5.07;;;16.90;99.90;17.00;100387.00;;;;4892118;28;106987;-62
2022/06/26 03:05:47;;;;;;;6.60;5.88;;;16.90;99.90;17.00;100383.00;;;;4898510;28;108292;-63
2022/06/26 03:08:44;;;;;;;7.75;5.95;;;16.90;99.90;17.00;100396.00;;;;4882004;28;118081;-62
2022/06/26 03:11:09;;;;;;;5.90;5.35;;;16.90;99.90;17.00;100390.00;;;;4889936;28;110700;-63
2022/06/26 03:13:35;;;;;;;8.07;5.22;;;16.90;99.90;17.00;100385.00;;;;4880494;28;108715;-63
2022/06/26 03:16:01;;;;;;;7.22;6.53;;;16.90;99.90;17.00;100391.00;;;;4881493;28;99907;-63
2022/06/26 03:18:26;;;;;;;8.15;5.90;;;16.90;99.90;17.00;100398.00;;;;4878614;28;116314;-63
2022/06/26 03:20:52;;;;;;;6.50;5.63;;;16.90;99.90;17.00;100393.00;;;;4879877;28;98530;-63
2022/06/26 03:23:18;;;;;;;6.07;5.30;;;16.90;99.90;17.00;100404.00;;;;4879284;28;108227;-63
2022/06/26 03:25:43;;;;;;;6.40;5.45;;;16.90;99.90;17.00;100401.00;;;;4878818;28;117803;-64
2022/06/26 03:28:10;;;;;;;6.03;5.53;;;16.90;99.90;17.00;100398.00;;;;4880522;28;87797;-63
2022/06/26 03:30:36;;;;;;;6.45;5.57;;;16.90;99.90;17.10;100395.00;;;;4879696;28;106959;-63
2022/06/26 03:33:02;;;;;;;6.00;4.82;;;17.00;99.90;17.10;100398.00;;;;4878948;28;108200;-63
2022/06/26 03:35:28;;;;;;;6.15;5.38;;;17.00;99.90;17.10;100394.00;;;;4881404;28;88726;-63
2022/06/26 03:37:54;;;;;;;7.28;6.00;;;17.00;99.90;17.10;100402.00;;;;4879425;28;88043;-64
2022/06/26 03:40:39;;;;;;;7.53;6.25;;;17.40;99.90;17.10;100403.00;;;;4894690;28;87796;-63
2022/06/26 03:43:09;;;;;;;8.10;5.32;;;17.00;99.90;17.20;100405.00;;;;4889859;28;108178;-62
2022/06/26 03:45:35;;;;;;;8.68;7.07;;;17.10;99.90;17.20;100406.00;;;;4880961;28;89236;-63
2022/06/26 03:48:00;;;;;;;7.35;6.60;;;17.10;99.90;17.30;100413.00;;;;4879790;28;88717;-63
2022/06/26 03:50:26;;;;;;;8.32;7.07;;;17.10;99.90;17.30;100415.00;;;;4880562;28;109960;-62
2022/06/26 03:52:52;;;;;;;8.15;6.15;;;17.20;99.90;17.40;100412.00;;;;4880181;28;108685;-62
2022/06/26 03:55:17;;;;;;;6.50;6.00;;;17.30;99.90;17.40;100412.00;;;;4880987;28;117974;-62
2022/06/26 03:57:43;;;;;;;7.88;7.07;;;17.30;99.90;17.50;100419.00;;;;4880823;28;115885;-62
2022/06/26 04:00:09;;;;;;;9.57;7.00;;;17.30;99.90;17.60;100425.00;;;;4879297;28;110125;-62
2022/06/26 04:02:42;;;;;;;8.77;6.35;;;17.40;99.90;17.60;100423.00;;;;4879383;28;99219;-62
2022/06/26 04:05:08;;;;;;;7.97;5.85;;;17.50;99.90;17.70;100424.00;;;;4881795;28;88415;-62
2022/06/26 04:07:34;;;;;;;8.13;6.53;;;17.50;99.90;17.70;100422.00;;;;4880247;28;104102;-61
2022/06/26 04:09:59;;;;;;;5.75;5.10;;;17.50;99.90;17.70;100426.00;;;;4880517;28;91966;-62
2022/06/26 04:12:25;;;;;;;6.68;5.78;;;17.60;99.90;17.80;100431.00;;;;4879479;28;99875;-62
2022/06/26 04:14:51;;;;;;;7.57;5.95;;;17.60;99.90;17.80;100434.00;;;;4877318;28;116825;-62
2022/06/26 04:17:17;;;;;;;6.57;5.93;;;17.60;99.90;17.80;100434.00;;;;4879465;28;118687;-62
2022/06/26 04:19:42;;;;;;;8.38;7.22;;;17.70;99.90;17.80;100432.00;;;;4878546;28;87697;-62
2022/06/26 04:22:09;;;;;;;9.52;6.07;;;17.70;99.90;17.90;100427.00;;;;4878265;28;108165;-62
2022/06/26 04:24:34;;;;;;;6.82;6.05;;;17.70;99.90;17.90;100429.00;;;;4877940;28;108977;-62
2022/06/26 04:27:00;;;;;;;7.32;6.63;;;17.80;99.90;18.00;100419.00;;;;4878700;28;104659;-62
2022/06/26 04:29:26;;;;;;;7.03;5.85;;;17.80;99.90;18.00;100430.00;;;;4861093;28;88290;-62
2022/06/26 04:31:52;;;;;;;8.73;6.05;;;17.80;99.90;18.00;100429.00;;;;4878984;28;87153;-62
2022/06/26 04:34:18;;;;;;;6.90;6.15;;;17.70;99.90;18.00;100434.00;;;;4877752;28;102406;-61
2022/06/26 04:36:43;;;;;;;6.00;5.38;;;17.90;99.90;18.00;100435.00;;;;4876733;28;88865;-62
2022/06/26 04:39:09;;;;;;;8.18;6.50;;;17.90;99.90;18.10;100434.00;;;;4878971;28;88374;-62
2022/06/26 04:41:35;;;;;;;8.73;6.97;;;17.90;99.90;18.10;100430.00;;;;4878176;28;92175;-61
2022/06/26 04:44:11;;;;;;;5.93;5.32;;;18.00;99.90;18.30;100432.00;;;;4879989;28;118712;-62
2022/06/26 04:46:40;;;;;;;8.70;6.85;;;18.10;99.90;18.40;100421.00;;;;4874200;28;88060;-62
2022/06/26 04:49:07;;;;;;;7.53;6.78;;;18.20;99.90;18.50;100438.00;;;;4874262;28;87662;-62
2022/06/26 04:51:35;;;;;;;7.63;6.25;;;18.30;99.90;18.60;100431.00;;;;4879459;28;87907;-62
2022/06/26 04:54:04;;;;;;;12.27;6.40;;;18.50;99.90;18.80;100428.00;;;;4879317;28;88998;-62
2022/06/26 04:56:30;;;;;;;12.35;7.85;;;18.60;99.90;18.90;100446.00;;;;4879014;28;95789;-62
2022/06/26 04:58:56;;;;;;;9.38;7.45;;;18.70;99.90;19.10;100437.00;;;;4862747;28;87687;-62
2022/06/26 05:01:32;;;;;;;8.15;7.32;;;18.90;99.90;19.20;100445.00;;;;4879484;28;88152;-62
2022/06/26 05:03:58;;;;;;;8.57;6.30;;;19.00;99.90;19.40;100437.00;;;;4879199;28;89751;-62
2022/06/26 05:06:24;;;;;;;11.55;7.90;;;19.20;99.90;19.50;100443.00;;;;4879924;28;119245;-62
2022/06/26 05:08:50;;;;;;;7.43;6.70;;;19.30;99.90;19.70;100442.00;;;;4888072;28;109785;-62
2022/06/26 05:11:18;;;;;;;8.05;7.18;;;19.50;99.90;19.80;100446.00;;;;4890401;28;106776;-61
2022/06/26 05:13:44;;;;;;;9.77;6.75;;;19.60;99.90;19.90;100447.00;;;;4878843;28;87703;-61
2022/06/26 05:16:10;;;;;;;9.07;7.00;;;19.70;99.90;20.00;100445.00;;;;4878757;28;117599;-61
2022/06/26 05:18:35;;;;;;;8.40;6.47;;;19.80;99.90;20.20;100451.00;;;;4878370;28;108402;-62
2022/06/26 05:21:01;;;;;;;8.27;6.65;;;20.00;99.90;20.30;100448.00;;;;4877137;28;108592;-61
2022/06/26 05:23:27;;;;;;;8.68;7.35;;;20.10;99.90;20.50;100458.00;;;;4878124;28;90119;-62
2022/06/26 05:25:52;;;;;;;10.13;7.68;;;20.20;99.90;20.60;100456.00;;;;4879769;28;87819;-61
2022/06/26 05:28:19;;;;;;;8.90;7.90;;;20.40;99.90;20.80;100460.00;;;;4879894;28;89027;-61
2022/06/26 05:30:44;;;;;;;8.65;6.60;;;20.50;99.90;20.90;100463.00;;;;4879533;28;87706;-61
2022/06/26 05:33:11;;;;;;;8.05;6.75;;;20.70;99.90;21.10;100461.00;;;;4877638;28;99153;-61
2022/06/26 05:35:37;;;;;;;8.50;7.22;;;20.80;99.90;21.30;100464.00;;;;4879213;28;117646;-62
2022/06/26 05:38:03;;;;;;;9.55;7.70;;;21.00;99.90;21.40;100468.00;;;;4879274;28;87784;-63
2022/06/26 05:40:29;;;;;;;16.80;7.15;;;21.20;99.90;21.60;100473.00;;;;4877616;28;88167;-62
2022/06/26 05:42:55;;;;;;;10.45;7.88;;;21.30;99.90;21.80;100475.00;;;;4876196;28;88087;-61
2022/06/26 05:45:21;;;;;;;9.38;7.47;;;21.50;99.90;21.90;100478.00;;;;4875409;28;87246;-62
2022/06/26 05:47:48;;;;;;;9.85;8.27;;;21.70;99.90;22.00;100474.00;;;;4875451;28;88109;-62
2022/06/26 05:50:13;;;;;;;9.00;7.88;;;21.80;99.90;22.10;100475.00;;;;4875727;28;87817;-62
2022/06/26 05:52:39;;;;;;;16.98;7.95;;;21.90;99.90;22.20;100479.00;;;;4872481;28;119648;-61
2022/06/26 05:55:05;;;;;;;8.82;6.93;;;22.00;99.90;22.30;100470.00;;;;4873927;28;117843;-61
2022/06/26 05:57:31;;;;;;;9.55;7.05;;;22.00;99.90;22.40;100474.00;;;;4874067;28;87886;-62
2022/06/26 05:59:57;;;;;;;10.65;6.50;;;22.10;99.90;22.50;100481.00;;;;4872921;28;109585;-62
2022/06/26 06:02:23;;;;;;;7.63;6.93;;;22.30;99.90;22.60;100484.00;;;;4876056;28;89342;-62
2022/06/26 06:04:49;;;;;;;8.73;7.22;;;22.40;99.90;22.70;100482.00;;;;4877883;28;88391;-62
2022/06/26 06:07:14;;;;;;;10.60;6.60;;;22.50;99.90;22.90;100481.00;;;;4878615;28;87857;-61
2022/06/26 06:09:40;;;;;;;7.47;5.88;;;22.60;99.90;23.00;100492.00;;;;4877750;28;87332;-61
2022/06/26 06:12:06;;;;;;;9.88;5.97;;;22.70;99.90;23.10;100482.00;;;;4876557;28;118296;-62
2022/06/26 06:14:32;;;;;;;9.30;6.57;;;22.90;99.90;23.20;100483.00;;;;4877340;28;106701;-60
2022/06/26 06:17:35;;;;;;;9.38;6.70;;;23.00;99.90;23.40;100488.00;;;;4877280;28;88993;-62
2022/06/26 06:19:43;;;;;;;8.07;6.35;;;23.10;99.90;23.50;100490.00;;;;4877849;28;87911;-61
2022/06/26 06:22:09;;;;;;;8.07;6.28;;;23.20;99.90;23.60;100487.00;;;;4876157;28;118168;-60
2022/06/26 06:24:34;;;;;;;9.48;5.88;;;23.40;99.90;23.80;100489.00;;;;4875994;28;117231;-62
2022/06/26 06:27:00;;;;;;;7.18;5.25;;;23.50;99.90;23.90;100496.00;;;;4876105;28;108820;-62
2022/06/26 06:29:26;;;;;;;6.50;5.78;;;23.60;99.90;24.00;100489.00;;;;4876774;28;107992;-61
2022/06/26 06:31:51;;;;;;;9.13;7.03;;;23.80;99.90;24.20;100484.00;;;;4876533;28;117574;-62
2022/06/26 06:34:17;;;;;;;6.63;5.85;;;23.90;99.90;24.30;100489.00;;;;4872096;28;118233;-61
2022/06/26 06:36:43;;;;;;;8.38;6.03;;;24.00;99.90;24.40;100485.00;;;;4875995;28;110744;-62
2022/06/26 06:39:44;;;;;;;8.25;6.30;;;24.10;99.90;24.60;100489.00;;;;4875914;28;109955;-60
2022/06/26 06:42:42;;;;;;;7.50;5.45;;;24.30;99.90;24.80;100498.00;;;;4869577;28;90039;-60
2022/06/26 06:45:09;;;;;;;7.85;5.57;;;24.50;99.90;25.00;100497.00;;;;4858686;28;103250;-60
2022/06/26 06:47:36;;;;;;;7.50;5.15;;;24.70;99.90;25.20;100498.00;;;;4858532;28;87921;-60
2022/06/26 06:50:02;;;;;;;6.22;4.90;;;24.90;99.90;25.30;100499.00;;;;4877379;28;88187;-60
2022/06/26 06:52:28;;;;;;;6.88;4.50;;;25.00;99.90;25.50;100497.00;;;;4875212;28;107890;-60
2022/06/26 06:54:54;;;;;;;6.43;5.82;;;25.20;99.90;25.70;100505.00;;;;4875684;28;117016;-60
2022/06/26 06:57:19;;;;;;;6.82;6.13;;;25.30;99.90;25.80;100504.00;;;;4875856;28;109099;-60
2022/06/26 06:59:45;;;;;;;5.00;4.15;;;25.50;99.90;25.90;100508.00;;;;4876311;28;108890;-61
2022/06/26 07:02:11;;;;;;;9.30;4.43;;;25.60;99.90;26.10;100511.00;;;;4875413;28;118372;-60
2022/06/26 07:04:36;;;;;;;4.97;4.18;;;25.80;99.90;26.20;100509.00;;;;4875173;28;116790;-61
2022/06/26 07:07:09;;;;;;;5.07;4.38;;;25.90;99.90;26.40;100506.00;;;;4874537;28;108771;-62
2022/06/26 07:09:34;;;;;;;8.60;5.28;;;26.10;99.90;26.60;100508.00;;;;4880462;28;87764;-62
2022/06/26 07:12:00;;;;;;;4.97;4.30;;;26.20;99.90;26.80;100516.00;;;;4874933;28;116902;-62
2022/06/26 07:14:26;;;;;;;5.13;3.80;;;26.40;99.90;27.10;100509.00;;;;4874375;28;117971;-62
2022/06/26 07:16:52;;;;;;;5.13;4.28;;;26.70;99.90;27.30;100502.00;;;;4876843;28;110357;-62
2022/06/26 07:19:17;;;;;;;4.68;4.28;;;26.90;99.90;27.50;100498.00;;;;4874544;28;107861;-62
2022/06/26 07:21:43;;;;;;;5.70;3.33;;;27.10;99.90;27.70;100504.00;;;;4881095;28;88099;-62
2022/06/26 07:24:11;;;;;;;3.13;2.65;;;27.30;99.90;27.80;100505.00;;;;4876029;28;88652;-62
2022/06/26 07:26:37;;;;;;;6.35;2.92;;;27.50;99.90;28.00;100498.00;;;;4876599;28;88784;-62
2022/06/26 07:29:02;;;;;;;3.70;3.40;;;27.70;99.90;28.30;100501.00;;;;4875822;28;88284;-62
2022/06/26 07:31:28;;;;;;;3.55;3.25;;;27.90;99.90;28.50;100499.00;;;;4874545;28;118659;-62
2022/06/26 07:34:12;;;;;;;4.97;3.22;;;28.20;99.90;28.70;100487.00;;;;4875567;28;94184;-62
2022/06/26 07:36:42;;;;;;;3.00;2.72;;;28.30;98.00;28.80;100495.00;;;;4876547;28;88401;-63
2022/06/26 07:39:10;;;;;;;3.42;2.55;;;28.50;97.20;29.00;100491.00;;;;4875795;28;87934;-63
2022/06/26 07:41:36;;;;;;;3.17;2.22;;;28.70;96.60;29.30;100495.00;;;;4875178;28;87905;-63
2022/06/26 07:44:02;;;;;;;4.22;2.22;;;28.90;95.40;29.50;100498.00;;;;4875131;28;116676;-60
2022/06/26 07:46:28;;;;;;;3.55;2.55;;;29.10;93.70;29.60;100494.00;;;;4875117;28;88290;-60
2022/06/26 07:48:54;;;;;;;2.35;1.60;;;29.30;91.50;29.80;100503.00;;;;4876383;28;87364;-60
2022/06/26 07:51:20;;;;;;;4.18;2.50;;;29.40;90.10;29.80;100491.00;;;;4873284;28;87935;-60
2022/06/26 07:53:46;;;;;;;2.65;2.35;;;29.50;86.00;29.90;100496.00;;;;4875038;28;88480;-64
2022/06/26 07:56:13;;;;;;;2.38;2.17;;;29.60;86.30;30.10;100501.00;;;;4875745;28;88977;-63
2022/06/26 07:58:39;;;;;;;2.30;2.03;;;29.80;87.00;30.40;100503.00;;;;4875511;28;87836;-63
2022/06/26 08:01:04;;;;;;;5.60;2.17;;;30.00;84.40;30.50;100497.00;;;;4877136;28;111042;-63
2022/06/26 08:03:30;;;;;;;3.45;2.60;;;30.20;82.10;30.70;100505.00;;;;4874186;28;117411;-63
2022/06/26 08:05:56;;;;;;;2.38;2.10;;;30.40;77.30;30.80;100497.00;;;;4875527;28;89694;-63
2022/06/26 08:08:22;;;;;;;2.10;1.90;;;30.50;74.40;30.80;100492.00;;;;4874393;28;108431;-63
2022/06/26 08:10:48;;;;;;;3.15;2.17;;;30.50;71.20;30.80;100497.00;;;;4874338;28;117611;-61
2022/06/26 08:13:14;;;;;;;2.67;2.20;;;30.50;71.50;30.70;100504.00;;;;4876017;28;87908;-63
2022/06/26 08:15:40;;;;;;;2.20;1.98;;;30.50;72.20;30.70;100497.00;;;;4874292;28;111469;-61
2022/06/26 08:18:07;;;;;;;2.30;2.08;;;30.40;71.60;30.60;100500.00;;;;4875642;28;87718;-60
2022/06/26 08:20:33;;;;;;;5.25;2.20;;;30.40;70.80;30.60;100504.00;;;;4875127;28;88524;-60
2022/06/26 08:22:59;;;;;;;2.60;2.38;;;30.30;70.10;30.60;100502.00;;;;4875704;28;89291;-62
2022/06/26 08:25:25;;;;;;;3.35;2.38;;;30.30;69.40;30.60;100502.00;;;;4875895;28;87662;-62
2022/06/26 08:27:50;;;;;;;1.67;1.58;;;30.30;69.40;30.70;100497.00;;;;4875929;28;87736;-62
2022/06/26 08:30:16;;;;;;;2.20;1.95;;;30.40;68.90;30.80;100502.00;;;;4875014;28;87994;-60
2022/06/26 08:32:42;;;;;;;1.95;1.80;;;30.50;66.90;30.90;100492.00;;;;4856718;28;117165;-60
2022/06/26 08:35:10;;;;;;;1.77;1.67;;;30.60;65.90;31.00;100491.00;;;;4875017;28;99219;-60
2022/06/26 08:37:36;;;;;;;1.70;1.60;;;30.70;65.20;31.20;100500.00;;;;4875794;28;87204;-63
2022/06/26 08:40:01;;;;;;;1.70;1.60;;;30.90;62.40;31.30;100497.00;;;;4874583;28;117451;-62
2022/06/26 08:42:27;;;;;;;2.30;2.05;;;31.00;61.20;31.40;100498.00;;;;4874253;28;112537;-61
2022/06/26 08:44:57;;;;;;;3.13;2.00;;;31.10;61.00;31.60;100495.00;;;;4874680;28;88680;-63
2022/06/26 08:47:25;;;;;;;1.67;1.58;;;31.20;60.60;31.70;100497.00;;;;4875441;28;87944;-63
2022/06/26 08:49:52;;;;;;;2.40;2.20;;;31.30;60.10;31.90;100494.00;;;;4874992;28;87778;-63
2022/06/26 08:52:21;;;;;;;1.85;1.67;;;31.40;59.20;32.20;100495.00;;;;4874224;28;109451;-64
2022/06/26 08:54:48;;;;;;;1.90;1.70;;;31.70;58.70;32.50;100499.00;;;;4874649;28;88048;-63
2022/06/26 08:57:18;;;;;;;2.30;1.60;;;32.00;58.60;32.80;100501.00;;;;4872281;28;100082;-63
2022/06/26 08:59:44;;;;;;;1.75;1.13;;;32.30;58.10;33.10;100507.00;;;;4873868;28;116582;-61
2022/06/26 09:02:09;;;;;;;2.47;1.70;;;32.60;56.70;33.30;100506.00;;;;4873737;28;116667;-61
2022/06/26 09:04:39;;;;;;;1.65;1.25;;;32.80;55.70;33.40;100503.00;;;;4874087;28;109460;-60
2022/06/26 09:07:08;;;;;;;1.08;0.98;;;32.90;54.10;33.50;100511.00;;;;4874626;28;89162;-61
2022/06/26 09:09:41;;;;;;;2.00;1.67;;;33.10;53.20;33.60;100510.00;;;;4874565;28;88979;-61
2022/06/26 09:12:08;;;;;;;1.77;1.35;;;33.10;54.10;33.80;100511.00;;;;4874336;28;89195;-61
2022/06/26 09:14:34;;;;;;;1.60;1.50;;;33.30;54.30;34.00;100516.00;;;;4873665;28;110288;-60
2022/06/26 09:17:05;;;;;;;1.38;1.27;;;33.50;54.00;34.20;100509.00;;;;4874409;28;89448;-61
2022/06/26 09:19:36;;;;;;;1.33;1.23;;;33.70;53.40;34.10;100509.00;;;;4874108;28;105027;-60
2022/06/26 09:22:18;;;;;;;1.08;0.98;;;33.70;51.40;33.90;100506.00;;;;4873848;28;88863;-60
2022/06/26 09:24:57;;;;;;;2.60;1.30;;;33.60;51.40;33.90;100511.00;;;;4874535;28;87783;-61
2022/06/26 09:27:23;;;;;;;1.50;1.40;;;33.50;50.60;33.80;100514.00;;;;4875382;28;87061;-60
2022/06/26 09:30:01;;;;;;;1.20;1.10;;;33.50;50.50;33.90;100515.00;;;;4874139;28;97475;-60
2022/06/26 09:32:39;;;;;;;1.63;1.15;;;33.50;50.00;33.90;100511.00;;;;4870274;28;88072;-60
2022/06/26 09:35:05;;;;;;;1.25;1.08;;;33.50;49.80;33.90;100512.00;;;;4866330;28;110099;-62
2022/06/26 09:37:36;;;;;;;1.42;1.33;;;33.50;49.50;33.90;100518.00;;;;4873553;28;87551;-60
2022/06/26 09:40:04;;;;;;;1.80;1.20;;;33.50;49.30;34.10;100519.00;;;;4874403;28;89088;-61
2022/06/26 09:42:39;;;;;;;1.70;1.15;;;33.60;49.50;34.40;100522.00;;;;4873781;28;88331;-60
2022/06/26 09:45:09;;;;;;;1.67;1.13;;;33.80;50.20;34.80;100526.00;;;;4873932;28;87882;-60
2022/06/26 09:47:35;;;;;;;1.58;1.48;;;34.20;50.30;35.20;100526.00;;;;4875059;28;88024;-60
2022/06/26 09:50:10;;;;;;;2.75;1.80;;;34.50;50.20;35.60;100524.00;;;;4874200;28;88490;-60
2022/06/26 09:52:36;;;;;;;1.45;1.25;;;35.00;50.20;36.00;100524.00;;;;4873380;28;106203;-61
2022/06/26 09:55:03;;;;;;;1.30;1.20;;;35.40;50.00;36.40;100530.00;;;;4874002;28;88234;-60
2022/06/26 09:57:31;;;;;;;1.98;1.52;;;35.70;49.50;36.70;100523.00;;;;4874119;28;94769;-64
2022/06/26 09:59:57;;;;;;;1.25;1.15;;;36.00;48.10;37.00;100526.00;;;;4873390;28;89747;-64
2022/06/26 10:08:06;;;;;;;1.25;1.15;;;36.90;46.90;37.90;100527.00;;;;4874268;28;88024;-64
2022/06/26 10:10:34;;;;;;;1.92;1.30;;;37.20;45.80;37.90;100531.00;;;;4873479;28;94527;-61
2022/06/26 10:13:05;;;;;;;1.08;0.98;;;37.30;45.80;37.90;100536.00;;;;4873854;28;88007;-61
2022/06/26 10:15:56;;;;;;;1.88;1.58;;;37.40;45.50;37.90;100537.00;;;;4873737;28;90081;-61
2022/06/26 10:18:56;;;;;;;1.70;1.08;;;37.30;45.30;37.70;100545.00;;;;4868545;28;87273;-61
2022/06/26 10:21:22;;;;;;;1.00;0.77;;;37.20;45.30;37.50;100540.00;;;;4854587;28;109152;-61
2022/06/26 10:23:48;;;;;;;1.90;1.30;;;37.00;44.90;37.30;100533.00;;;;4839294;28;117876;-61
2022/06/26 10:26:20;;;;;;;2.33;1.33;;;36.90;44.70;37.20;100541.00;;;;4872371;28;112727;-61
2022/06/26 10:29:17;;;;;;;1.40;1.08;;;36.70;44.80;37.20;100535.00;;;;4874519;28;87677;-61
2022/06/26 10:31:47;;;;;;;3.15;1.02;;;36.70;44.60;37.30;100536.00;;;;4869392;28;88214;-61
2022/06/26 10:34:23;;;;;;;1.38;1.15;;;36.70;44.20;37.50;100537.00;;;;4873172;28;88652;-63
2022/06/26 10:37:09;;;;;;;1.67;1.20;;;36.80;44.10;37.60;100534.00;;;;4874161;28;87946;-61
2022/06/26 10:39:51;;;;;;;0.80;0.80;;;36.90;43.70;37.50;100539.00;;;;4874392;28;87862;-61
2022/06/26 10:45:31;;;;;;;1.35;1.23;;;36.80;42.60;36.90;100528.00;;;;4871768;28;87876;-61
2022/06/26 10:48:17;;;;;;;1.73;1.10;;;36.50;42.40;36.60;100535.00;;;;4873867;28;87694;-62
2022/06/26 10:50:45;;;;;;;1.50;1.20;;;36.20;42.40;36.20;100537.00;;;;4875620;28;101442;-62
2022/06/26 10:53:26;;;;;;;1.30;0.68;;;35.80;42.60;36.20;100535.00;;;;4875491;28;89011;-62
2022/06/26 10:55:56;;;;;;;1.50;1.40;;;35.70;42.80;36.40;100530.00;;;;4876040;28;88544;-61
2022/06/26 10:58:28;;;;;;;1.25;0.93;;;35.80;42.90;36.50;100536.00;;;;4876516;28;87862;-62
2022/06/26 11:00:58;;;;;;;1.38;1.23;;;35.90;42.70;36.80;100523.00;;;;4871817;28;96642;-63
2022/06/26 11:03:25;;;;;;;2.17;1.27;;;36.00;42.70;37.20;100524.00;;;;4869962;28;87944;-62
2022/06/26 11:06:02;;;;;;;3.25;1.35;;;36.30;42.60;37.50;100518.00;;;;4875828;28;88562;-62
2022/06/26 11:08:36;;;;;;;1.20;1.00;;;36.70;40.40;37.70;100516.00;;;;4876680;28;87826;-62
2022/06/26 11:11:25;;;;;;;3.15;1.45;;;36.90;40.10;38.10;100521.00;;;;4876621;28;87126;-62